createdAt,value
2022-12-11T00:01:10.223Z,15.5
2022-12-11T00:11:10.160Z,15.4
2022-12-11T00:21:10.232Z,15.4
2022-12-11T00:31:10.350Z,15.3
2022-12-11T00:41:10.208Z,15.2
2022-12-11T00:51:10.333Z,15.1
2022-12-11T01:01:00.288Z,15.1
2022-12-11T01:11:00.185Z,15.1
2022-12-11T01:21:00.257Z,15.1
2022-12-11T01:31:00.224Z,15.1
2022-12-11T01:41:00.251Z,14.9
2022-12-11T01:51:00.366Z,14.9
2022-12-11T02:01:00.316Z,14.8
2022-12-11T02:11:00.394Z,14.8
2022-12-11T02:21:00.259Z,14.7
2022-12-11T02:31:00.452Z,14.8
2022-12-11T02:41:00.253Z,14.6
2022-12-11T02:51:00.369Z,14.7
2022-12-11T03:01:00.349Z,14.6
2022-12-11T03:11:00.378Z,14.6
2022-12-11T03:21:00.262Z,14.5
2022-12-11T03:31:00.437Z,14.4
2022-12-11T03:41:00.455Z,14.5
2022-12-11T03:51:00.383Z,14.4
2022-12-11T04:01:00.479Z,16.3
2022-12-11T04:11:00.487Z,16.5
2022-12-11T04:21:00.474Z,16
2022-12-11T04:31:00.418Z,15.7
2022-12-11T04:41:00.508Z,15.3
2022-12-11T04:51:00.433Z,15
2022-12-11T05:01:00.502Z,16.5
2022-12-11T05:11:00.407Z,17.1
2022-12-11T05:21:00.480Z,16.5
2022-12-11T05:31:00.649Z,16.1
2022-12-11T05:41:00.470Z,16.1
2022-12-11T05:51:00.609Z,17.8
2022-12-11T06:01:00.468Z,17.3
2022-12-11T06:11:00.605Z,16.7
2022-12-11T06:21:00.459Z,16.3
2022-12-11T06:31:00.593Z,17.8
2022-12-11T06:41:00.665Z,17.8
2022-12-11T06:51:00.579Z,17.2
2022-12-11T07:01:00.764Z,16.7
2022-12-11T07:11:00.589Z,17.1
2022-12-11T07:21:00.691Z,18.2
2022-12-11T07:31:00.600Z,17.7
2022-12-11T07:41:00.657Z,17.1
2022-12-11T07:51:00.597Z,17.5
2022-12-11T08:01:00.701Z,18.9
2022-12-11T08:11:00.585Z,18.4
2022-12-11T08:21:00.659Z,17.7
2022-12-11T08:31:00.816Z,17.2
2022-12-11T08:41:00.635Z,17.6
2022-12-11T08:51:00.822Z,18.6
2022-12-11T09:01:00.803Z,18
2022-12-11T09:11:00.799Z,17.3
2022-12-11T09:21:00.776Z,16.8
2022-12-11T09:31:00.872Z,16.5
2022-12-11T09:41:00.654Z,16.2
2022-12-11T09:51:00.796Z,18
2022-12-11T10:01:00.674Z,18
2022-12-11T10:11:00.831Z,17.3
2022-12-11T10:21:00.737Z,17
2022-12-11T10:31:00.887Z,16.8
2022-12-11T10:41:00.923Z,16.6
2022-12-11T10:51:00.804Z,16.6
2022-12-11T11:01:00.894Z,16.2
2022-12-11T11:11:00.876Z,16.1
2022-12-11T11:21:00.916Z,16.2
2022-12-11T11:31:00.858Z,16.3
2022-12-11T11:41:04.968Z,16.3
2022-12-11T11:51:00.840Z,16.3
2022-12-11T12:01:00.912Z,16.4
2022-12-11T12:11:01.023Z,16.4
2022-12-11T12:21:00.927Z,16.5
2022-12-11T12:31:00.883Z,16.5
2022-12-11T12:41:01.018Z,16.6
2022-12-11T12:51:00.894Z,16.6
2022-12-11T13:01:01.035Z,17
2022-12-11T13:11:00.937Z,16.9
2022-12-11T13:21:01.028Z,16.9
2022-12-11T13:31:00.995Z,17
2022-12-11T13:41:01.095Z,17
2022-12-11T13:51:01.028Z,16.8
2022-12-11T14:01:01.164Z,16.7
2022-12-11T14:11:00.991Z,16.9
2022-12-11T14:21:01.115Z,16.8
2022-12-11T14:31:01.054Z,16.5
2022-12-11T14:41:01.107Z,16.3
2022-12-11T14:51:00.994Z,16.4
2022-12-11T15:01:01.153Z,16.4
2022-12-11T15:11:01.033Z,16.1
2022-12-11T15:21:01.117Z,17.2
2022-12-11T15:31:01.250Z,17.9
2022-12-11T15:41:01.055Z,17.4
2022-12-11T15:51:01.170Z,17
2022-12-11T16:01:01.125Z,16.6
2022-12-11T16:11:01.415Z,16.2
2022-12-11T16:21:01.515Z,16.2
2022-12-11T16:31:02.193Z,16.2
2022-12-11T16:41:01.690Z,16.1
2022-12-11T16:51:07.393Z,17
2022-12-11T17:01:01.656Z,18
2022-12-11T17:11:01.226Z,17.6
2022-12-11T17:21:01.120Z,17
2022-12-11T17:31:01.247Z,16.7
2022-12-11T17:41:01.517Z,16.4
2022-12-11T17:51:01.205Z,17.6
2022-12-11T18:01:01.309Z,18.2
2022-12-11T18:11:01.685Z,17.5
2022-12-11T18:21:01.331Z,17
2022-12-11T18:31:01.253Z,16.6
2022-12-11T18:41:01.344Z,17.9
2022-12-11T18:51:01.196Z,18.4
2022-12-11T19:01:01.387Z,17.9
2022-12-11T19:11:01.377Z,17.4
2022-12-11T19:21:08.683Z,17.1
2022-12-11T19:31:01.751Z,17.2
2022-12-11T19:41:01.430Z,18.6
2022-12-11T19:51:01.362Z,18.1
2022-12-11T20:01:01.364Z,17.5
2022-12-11T20:11:01.365Z,17
2022-12-11T20:21:01.465Z,16.6
2022-12-11T20:31:01.305Z,17.9
2022-12-11T20:41:01.437Z,18.4
2022-12-11T20:51:01.908Z,17.7
2022-12-11T21:01:01.548Z,17.3
2022-12-11T21:11:01.552Z,16.8
2022-12-11T21:21:01.469Z,16.5
2022-12-11T21:31:01.530Z,16.2
2022-12-11T21:41:01.419Z,17.6
2022-12-11T21:51:01.497Z,18.2
2022-12-11T22:01:06.930Z,17.5
2022-12-11T22:11:01.571Z,17.1
2022-12-11T22:21:01.398Z,16.7
2022-12-11T22:31:01.541Z,16.4
2022-12-11T22:41:01.592Z,16.2
2022-12-11T22:51:07.274Z,15.9
2022-12-11T23:01:01.601Z,15.8
2022-12-11T23:11:01.514Z,15.7
2022-12-11T23:21:01.606Z,15.6
2022-12-11T23:31:01.638Z,15.5
2022-12-11T23:41:01.653Z,15.6
2022-12-11T23:51:01.531Z,15.6
